Time;durP1;ratioP1;P1;durP2;ratioP2;P2;SDS_P1;SDS_P2;PMS_P1;PMS_P2;Temp;Humidity;BMP_temperature;BMP_pressure;BME280_temperature;BME280_humidity;BME280_pressure;Samples;Min_cycle;Max_cycle;Signal;HPM_P1;HPM_P2
2023/06/29 07:01:22;;;;;;;7.72;1.70;;;21.50;99.90;24.50;101309.00;;;;6264144;22;1391157;-62
2023/06/29 07:03:51;;;;;;;5.28;2.65;;;21.60;99.90;23.20;101290.00;;;;6309664;22;20576;-62
2023/06/29 07:06:21;;;;;;;0.22;0.22;;;21.10;99.90;25.10;101306.00;;;;6309906;22;20165;-62
2023/06/29 07:08:46;;;;;;;1.23;0.43;;;21.40;99.90;25.80;101316.00;;;;6309013;22;20588;-62
2023/06/29 07:11:21;;;;;;;0.90;0.90;;;21.90;99.90;23.90;101294.00;;;;6309906;22;20150;-62
2023/06/29 07:13:49;;;;;;;0.10;0.10;;;21.40;99.90;24.70;101300.00;;;;6309399;22;20171;-62
2023/06/29 07:16:50;;;;;;;0.50;0.50;;;21.50;99.90;24.80;101304.00;;;;6310030;22;20164;-62
2023/06/29 07:19:45;;;;;;;0.30;0.30;;;21.80;99.90;25.80;101306.00;;;;6282476;22;20200;-62
2023/06/29 07:22:17;;;;;;;1.20;1.20;;;22.20;99.90;24.10;101293.00;;;;6284352;22;20219;-62
2023/06/29 07:24:44;;;;;;;6.38;5.25;;;21.60;99.90;25.10;101298.00;;;;6309436;22;20152;-62
2023/06/29 07:27:12;;;;;;;4.63;3.97;;;21.90;99.90;24.60;101297.00;;;;6309243;22;20219;-62
2023/06/29 07:29:42;;;;;;;11.68;7.07;;;21.70;99.90;23.60;101283.00;;;;6309099;22;20155;-62
2023/06/29 07:32:09;;;;;;;7.05;3.83;;;21.40;99.90;24.40;101296.00;;;;6309497;22;20179;-62
2023/06/29 07:34:38;;;;;;;2.42;2.28;;;21.50;99.90;25.00;101296.00;;;;6309027;22;20186;-62
2023/06/29 07:37:07;;;;;;;5.80;5.13;;;21.70;99.90;25.40;101305.00;;;;6309107;22;20221;-62
2023/06/29 07:39:35;;;;;;;3.10;1.58;;;22.10;99.90;24.20;101289.00;;;;6309089;22;20565;-62
2023/06/29 07:42:01;;;;;;;0.10;0.10;;;21.70;99.90;25.50;101301.00;;;;6309212;22;20144;-62
2023/06/29 07:44:30;;;;;;;9.93;6.03;;;22.00;99.90;24.70;101301.00;;;;6309241;22;20161;-62
2023/06/29 07:46:59;;;;;;;0.20;0.20;;;22.10;99.90;24.60;101282.00;;;;6309228;22;20672;-62
2023/06/29 07:49:27;;;;;;;5.55;4.07;;;21.70;99.90;24.20;101286.00;;;;6282191;22;20186;-62
2023/06/29 07:51:55;;;;;;;8.85;5.43;;;21.50;99.90;23.50;101286.00;;;;6308961;22;20175;-62
2023/06/29 07:54:24;;;;;;;2.55;2.30;;;21.40;99.90;23.10;101269.00;;;;6309221;22;20141;-62
2023/06/29 07:56:55;;;;;;;0.10;0.10;;;21.30;99.90;23.80;101268.00;;;;6282613;22;20141;-62
2023/06/29 07:59:27;;;;;;;4.63;4.28;;;21.20;99.90;25.20;101296.00;;;;6309115;22;20156;-62
2023/06/29 08:01:55;;;;;;;2.75;1.83;;;22.10;99.90;24.60;101285.00;;;;6308665;22;20164;-62
2023/06/29 08:04:25;;;;;;;2.47;2.15;;;22.30;99.90;26.00;101302.00;;;;6309112;22;20217;-62
2023/06/29 08:06:56;;;;;;;4.05;2.75;;;22.90;99.90;25.70;101289.00;;;;6308808;22;20136;-62
2023/06/29 08:09:22;;;;;;;4.22;1.65;;;23.30;99.90;28.80;101307.00;;;;6309136;22;20573;-62
2023/06/29 08:11:50;;;;;;;4.05;2.00;;;24.50;99.90;29.70;101318.00;;;;6281420;22;20218;-62
2023/06/29 08:14:16;;;;;;;0.38;0.38;;;25.70;99.90;29.00;101348.00;;;;6309126;22;20151;-62
2023/06/29 08:16:45;;;;;;;3.22;3.00;;;26.10;99.90;26.50;101287.00;;;;6308779;22;20141;-62
2023/06/29 08:19:15;;;;;;;5.00;3.28;;;24.90;99.90;26.50;101283.00;;;;6309510;22;20140;-62
2023/06/29 08:21:43;;;;;;;0.80;0.80;;;24.40;99.90;27.20;101289.00;;;;6308578;22;20141;-62
2023/06/29 08:24:12;;;;;;;0.85;0.63;;;24.50;99.90;26.60;101276.00;;;;6281180;22;20152;-62
2023/06/29 08:26:40;;;;;;;5.85;5.13;;;24.30;99.90;26.70;101280.00;;;;6308729;22;20153;-62
2023/06/29 08:29:08;;;;;;;0.10;0.10;;;24.20;99.90;28.80;101305.00;;;;6281724;22;20595;-62
2023/06/29 08:31:38;;;;;;;0.10;0.10;;;24.90;99.90;29.10;101311.00;;;;6308623;22;20183;-62
2023/06/29 08:34:10;;;;;;;0.08;0.08;;;25.30;99.90;29.10;101315.00;;;;6308974;22;20145;-62
2023/06/29 08:36:36;;;;;;;0.10;0.10;;;25.60;99.90;30.90;101342.00;;;;6281153;22;20141;-62
2023/06/29 08:39:02;;;;;;;0.73;0.73;;;26.40;99.90;29.00;101351.00;;;;6308405;22;20144;-62
2023/06/29 08:41:28;;;;;;;12.02;5.07;;;25.90;99.90;27.30;101306.00;;;;6308708;22;20141;-62
2023/06/29 08:43:56;;;;;;;2.55;2.40;;;24.80;99.90;28.70;101341.00;;;;6308489;22;20510;-62
2023/06/29 08:46:23;;;;;;;10.85;6.95;;;25.60;99.90;26.30;101292.00;;;;6308628;22;20137;-61
2023/06/29 08:48:55;;;;;;;7.07;3.30;;;24.50;99.90;27.50;101283.00;;;;6281452;22;20521;-62
2023/06/29 08:51:21;;;;;;;16.67;6.95;;;24.40;99.90;27.50;101284.00;;;;6280845;22;20469;-62
2023/06/29 08:53:49;;;;;;;0.82;0.82;;;24.60;99.90;29.70;101308.00;;;;6255734;22;20175;-62
2023/06/29 08:56:16;;;;;;;0.17;0.17;;;25.40;99.90;31.00;101342.00;;;;6308603;22;20144;-62
2023/06/29 08:58:47;;;;;;;0.80;0.75;;;26.60;99.90;30.10;101341.00;;;;6308519;22;20152;-64
2023/06/29 09:01:18;;;;;;;3.95;1.90;;;26.40;99.90;29.00;101367.00;;;;6281071;22;20164;-62
2023/06/29 09:03:49;;;;;;;1.17;1.08;;;26.40;99.90;28.30;101324.00;;;;6308326;22;20160;-62
2023/06/29 09:06:17;;;;;;;14.98;6.03;;;25.60;99.90;30.00;101347.00;;;;6308341;22;20170;-63
2023/06/29 09:08:46;;;;;;;12.00;5.90;;;26.30;99.90;29.40;101367.00;;;;6308436;22;20231;-63
2023/06/29 09:11:16;;;;;;;5.93;4.97;;;26.20;99.90;28.40;101340.00;;;;6308513;22;20158;-62
2023/06/29 09:13:42;;;;;;;2.28;2.05;;;25.70;99.90;30.40;101349.00;;;;6308342;22;20164;-63
2023/06/29 09:16:11;;;;;;;8.05;4.18;;;26.30;99.90;31.90;101366.00;;;;6280694;22;20637;-63
2023/06/29 09:18:47;;;;;;;1.75;1.65;;;27.50;99.90;28.40;101386.00;;;;6308057;22;20160;-62
2023/06/29 09:21:21;;;;;;;12.73;3.83;;;26.20;99.90;30.30;101367.00;;;;6281100;22;20540;-62
2023/06/29 09:23:50;;;;;;;5.93;2.40;;;26.80;99.90;29.50;101383.00;;;;6281633;22;20148;-62
2023/06/29 09:26:35;;;;;;;12.82;7.82;;;26.70;99.90;29.30;101393.00;;;;6308320;22;20149;-63
2023/06/29 09:29:08;;;;;;;0.77;0.77;;;27.30;99.90;27.70;101364.00;;;;6307698;22;20166;-62
2023/06/29 09:31:36;;;;;;;2.03;1.75;;;25.60;99.90;29.20;101341.00;;;;6308089;22;20149;-62
2023/06/29 09:34:21;;;;;;;1.35;1.33;;;25.70;99.90;29.30;101348.00;;;;6308135;22;20141;-62
2023/06/29 09:36:52;;;;;;;5.15;3.58;;;26.10;99.90;29.20;101363.00;;;;6307712;22;20235;-62
2023/06/29 09:39:20;;;;;;;14.00;6.50;;;26.30;99.90;30.60;101357.00;;;;6280972;22;20603;-63
2023/06/29 09:41:56;;;;;;;0.88;0.88;;;27.00;99.90;29.70;101372.00;;;;6280913;22;20145;-62
2023/06/29 09:44:26;;;;;;;0.38;0.38;;;27.00;99.90;32.70;101341.00;;;;6280958;22;20171;-62
2023/06/29 09:47:05;;;;;;;6.80;3.70;;;28.00;99.90;31.30;101367.00;;;;6307907;22;20176;-63
2023/06/29 09:49:54;;;;;;;15.55;8.90;;;28.20;99.90;30.90;101358.00;;;;6308093;22;20197;-63
2023/06/29 09:52:26;;;;;;;1.15;1.15;;;27.80;99.90;31.10;101383.00;;;;6307980;22;20646;-62
2023/06/29 09:54:58;;;;;;;8.77;3.17;;;27.60;99.90;29.00;101401.00;;;;6308057;22;20145;-62
2023/06/29 09:57:27;;;;;;;13.18;6.35;;;26.60;99.90;28.30;101402.00;;;;6307672;22;20140;-63
2023/06/29 09:59:56;;;;;;;1.48;1.48;;;25.90;99.90;28.10;101341.00;;;;6307272;22;20183;-63
2023/06/29 10:02:25;;;;;;;1.52;1.42;;;25.00;99.90;27.60;101323.00;;;;6280392;22;20160;-62
2023/06/29 10:04:54;;;;;;;3.85;3.58;;;24.70;99.90;27.50;101323.00;;;;6308079;22;20148;-63
2023/06/29 10:07:22;;;;;;;11.57;4.50;;;24.60;99.90;27.20;101309.00;;;;6280617;22;20156;-63
2023/06/29 10:09:51;;;;;;;7.93;5.05;;;24.40;99.90;27.90;101305.00;;;;6307945;22;20438;-63
2023/06/29 10:12:27;;;;;;;1.65;1.65;;;24.50;99.90;28.30;101304.00;;;;6280400;22;20668;-63
2023/06/29 10:15:08;;;;;;;2.03;1.80;;;24.60;99.90;26.90;101325.00;;;;6255310;22;20156;-62
2023/06/29 10:17:53;;;;;;;3.33;1.95;;;24.60;99.90;26.80;101283.00;;;;6307512;22;20151;-62
2023/06/29 10:20:27;;;;;;;7.63;5.88;;;24.30;99.90;27.80;101295.00;;;;6280771;22;20141;-63
2023/06/29 10:33:30;;;;;;;2.08;1.88;;;23.80;99.90;26.20;101274.00;;;;5055480;27;20516;-62
2023/06/29 10:36:02;;;;;;;0.30;0.30;;;23.80;99.90;27.50;101277.00;;;;5035427;28;20197;-62
2023/06/29 10:38:33;;;;;;;4.38;2.00;;;24.20;99.90;26.80;101262.00;;;;5039478;28;20179;-61
2023/06/29 10:40:59;;;;;;;0.45;0.38;;;24.00;99.90;27.50;101267.00;;;;5039772;28;20588;-61
2023/06/29 10:43:27;;;;;;;14.13;6.55;;;24.20;99.90;29.00;101303.00;;;;5039778;28;20205;-62
2023/06/29 10:45:55;;;;;;;0.68;0.68;;;25.00;99.90;28.50;101294.00;;;;5035196;28;20519;-62
2023/06/29 10:48:24;;;;;;;1.95;1.85;;;24.90;99.90;27.80;101314.00;;;;5034540;28;20179;-64
2023/06/29 10:50:52;;;;;;;1.58;1.58;;;24.90;99.90;27.70;101305.00;;;;5032042;28;20538;-62
2023/06/29 10:53:25;;;;;;;1.25;1.25;;;24.70;99.90;28.50;101308.00;;;;5033888;28;20679;-64
2023/06/29 10:55:57;;;;;;;1.00;0.85;;;24.90;99.90;29.70;101325.00;;;;5034815;28;20618;-64
2023/06/29 10:58:35;;;;;;;0.40;0.40;;;25.40;99.90;31.30;101324.00;;;;5046813;28;20183;-64
2023/06/29 11:01:04;;;;;;;0.95;0.95;;;26.40;99.90;30.20;101346.00;;;;5043474;28;20243;-62
2023/06/29 11:03:34;;;;;;;10.60;6.50;;;26.60;99.90;30.70;101342.00;;;;5039907;28;20194;-62
2023/06/29 11:06:04;;;;;;;18.38;10.48;;;27.10;99.90;30.10;101339.00;;;;5042326;28;20182;-62
2023/06/29 11:08:33;;;;;;;12.32;7.30;;;26.80;99.90;28.10;101370.00;;;;5042753;28;20201;-62
2023/06/29 11:11:17;;;;;;;1.35;0.95;;;26.10;99.90;28.40;101319.00;;;;5044249;28;20234;-62
2023/06/29 11:13:46;;;;;;;3.03;2.83;;;25.20;99.90;28.40;101320.00;;;;5033532;27;20187;-62
2023/06/29 11:16:15;;;;;;;2.72;2.63;;;25.40;99.90;29.40;101328.00;;;;5044115;28;20179;-64
2023/06/29 11:18:49;;;;;;;6.72;4.80;;;25.60;99.90;29.70;101337.00;;;;5042654;28;20251;-62
2023/06/29 11:21:17;;;;;;;3.22;2.28;;;26.00;99.90;27.70;101330.00;;;;5044440;28;20179;-62
2023/06/29 11:23:50;;;;;;;20.73;12.38;;;25.10;99.90;28.00;101317.00;;;;5029019;28;20186;-61
2023/06/29 11:26:20;;;;;;;6.85;3.92;;;24.90;99.90;26.30;101285.00;;;;5032442;28;20593;-61
2023/06/29 11:28:50;;;;;;;0.63;0.63;;;24.30;99.90;27.70;101286.00;;;;5035068;28;20657;-61
2023/06/29 11:31:17;;;;;;;13.38;9.18;;;24.40;99.90;26.30;101280.00;;;;5036539;28;20294;-61
2023/06/29 11:33:56;;;;;;;1.30;1.23;;;24.20;99.90;28.70;101294.00;;;;5042024;28;20216;-62
2023/06/29 11:36:36;;;;;;;0.25;0.20;;;24.70;99.90;29.50;101304.00;;;;5044446;28;20182;-62
2023/06/29 11:39:12;;;;;;;1.05;1.02;;;25.40;99.90;30.00;101331.00;;;;5045210;28;20182;-62
2023/06/29 11:41:40;;;;;;;0.10;0.10;;;25.80;99.90;30.50;101336.00;;;;5036487;28;20550;-65
2023/06/29 11:44:07;;;;;;;0.85;0.85;;;26.20;99.90;29.60;101344.00;;;;5024039;28;20318;-62
2023/06/29 11:46:45;;;;;;;0.50;0.50;;;26.10;99.90;29.50;101328.00;;;;5032775;28;20186;-62
2023/06/29 11:49:17;;;;;;;2.90;1.48;;;25.80;99.90;29.10;101324.00;;;;5012851;28;20171;-63
2023/06/29 11:51:46;;;;;;;0.10;0.10;;;25.60;99.90;28.80;101322.00;;;;5026211;28;20602;-63
2023/06/29 11:54:12;;;;;;;0.38;0.38;;;25.20;99.90;28.40;101304.00;;;;5015119;28;20183;-63
2023/06/29 11:56:42;;;;;;;1.17;1.10;;;25.00;99.90;28.80;101271.00;;;;5013802;28;20278;-63
2023/06/29 11:59:17;;;;;;;0.75;0.75;;;25.20;99.90;29.40;101320.00;;;;5029647;28;20221;-63
2023/06/29 12:01:44;;;;;;;0.68;0.68;;;25.60;99.90;29.90;101335.00;;;;5021534;28;20198;-63
2023/06/29 12:04:12;;;;;;;0.63;0.63;;;26.00;99.90;30.30;101320.00;;;;5021615;28;20184;-63
2023/06/29 12:07:02;;;;;;;0.45;0.45;;;26.30;99.90;29.90;101334.00;;;;5026094;28;20214;-63
2023/06/29 12:09:32;;;;;;;0.45;0.45;;;26.30;99.90;29.90;101322.00;;;;5018751;28;20191;-63
2023/06/29 12:12:05;;;;;;;0.20;0.20;;;26.20;99.90;30.30;101320.00;;;;5033719;28;20208;-63
2023/06/29 12:14:37;;;;;;;3.28;2.97;;;26.20;99.90;29.80;101336.00;;;;5021068;28;20195;-63
2023/06/29 12:17:05;;;;;;;1.65;1.55;;;26.20;99.90;30.20;101343.00;;;;5013562;28;20622;-63
2023/06/29 12:19:38;;;;;;;0.10;0.10;;;26.30;99.90;30.20;101335.00;;;;5017653;28;20588;-63
2023/06/29 12:22:15;;;;;;;0.43;0.40;;;26.20;99.90;29.40;101344.00;;;;5021850;28;20191;-63
2023/06/29 12:24:48;;;;;;;0.43;0.43;;;26.10;99.90;29.60;101323.00;;;;5047877;28;20576;-63
2023/06/29 12:27:20;;;;;;;4.03;3.83;;;26.00;99.90;30.00;101330.00;;;;5020326;28;20190;-63
2023/06/29 12:30:04;;;;;;;3.30;3.00;;;26.00;99.90;30.20;101340.00;;;;5013677;28;20192;-63
2023/06/29 12:32:30;;;;;;;1.00;0.85;;;26.10;99.90;29.30;101319.00;;;;5027473;28;20222;-63
2023/06/29 12:34:58;;;;;;;0.43;0.43;;;25.70;99.90;30.10;101313.00;;;;5014216;28;20187;-63
2023/06/29 12:37:24;;;;;;;0.10;0.10;;;25.80;99.90;30.10;101325.00;;;;5013127;28;20182;-63
2023/06/29 12:39:54;;;;;;;0.73;0.73;;;26.00;99.90;29.40;101294.00;;;;5016374;28;20274;-63
2023/06/29 12:42:24;;;;;;;0.10;0.10;;;25.80;99.90;29.70;101301.00;;;;5012014;28;20738;-63
2023/06/29 12:44:53;;;;;;;0.10;0.10;;;25.70;99.90;30.10;101312.00;;;;5014175;28;20194;-63
2023/06/29 12:47:35;;;;;;;0.80;0.80;;;25.90;99.90;30.20;101324.00;;;;5026742;28;20645;-63
2023/06/29 12:50:03;;;;;;;0.77;0.77;;;26.10;99.90;30.30;101325.00;;;;5024391;28;20194;-63
2023/06/29 12:52:30;;;;;;;0.40;0.40;;;26.20;99.90;30.60;101333.00;;;;5016456;28;20195;-63
2023/06/29 12:54:56;;;;;;;1.25;1.17;;;26.40;99.90;31.00;101344.00;;;;5026516;28;20186;-64
2023/06/29 12:57:28;;;;;;;0.68;0.68;;;26.80;99.90;30.60;101350.00;;;;5024592;28;20179;-63
2023/06/29 12:59:58;;;;;;;1.00;1.00;;;26.60;99.90;31.10;101351.00;;;;5028476;28;20179;-63
2023/06/29 13:02:28;;;;;;;0.20;0.20;;;26.90;99.90;31.20;101365.00;;;;5019236;28;20284;-63
2023/06/29 13:04:58;;;;;;;0.75;0.75;;;27.00;99.90;31.20;101370.00;;;;5022015;28;20198;-63
2023/06/29 13:07:24;;;;;;;0.10;0.10;;;27.10;99.90;31.80;101367.00;;;;5016857;28;20182;-63
2023/06/29 13:09:59;;;;;;;1.40;1.30;;;27.40;99.90;31.80;101355.00;;;;5014585;28;20180;-63
2023/06/29 13:12:27;;;;;;;0.20;0.20;;;27.80;99.90;32.10;101366.00;;;;5024224;28;20210;-63
2023/06/29 13:15:34;;;;;;;0.10;0.10;;;27.90;99.90;31.90;101377.00;;;;5025767;28;20180;-63
2023/06/29 13:18:55;;;;;;;1.52;1.45;;;27.80;99.90;32.40;101365.00;;;;5013581;28;20217;-63
2023/06/29 13:21:24;;;;;;;0.50;0.50;;;28.00;99.90;32.50;101358.00;;;;5014895;28;20186;-63
2023/06/29 13:23:52;;;;;;;1.23;0.55;;;28.20;99.90;32.60;101344.00;;;;5014944;28;20187;-63
2023/06/29 13:26:38;;;;;;;0.93;0.93;;;28.30;99.90;29.10;101393.00;;;;5017908;28;20179;-63
2023/06/29 13:29:04;;;;;;;9.73;5.22;;;27.00;99.90;28.30;101346.00;;;;5016272;28;20167;-63
2023/06/29 13:31:30;;;;;;;0.10;0.10;;;25.60;99.90;29.60;101357.00;;;;5027053;28;20672;-63
2023/06/29 13:34:06;;;;;;;9.27;5.80;;;25.70;99.90;28.50;101350.00;;;;5021758;28;20198;-63
2023/06/29 13:36:58;;;;;;;0.75;0.50;;;25.60;99.90;28.70;101305.00;;;;5028513;28;20182;-63
2023/06/29 13:39:27;;;;;;;1.33;1.33;;;25.10;99.90;29.80;101333.00;;;;5025357;28;20195;-63
2023/06/29 13:41:58;;;;;;;0.20;0.20;;;25.70;99.90;30.30;101344.00;;;;5015745;28;20256;-63
2023/06/29 13:45:00;;;;;;;1.00;0.68;;;26.10;99.90;30.40;101350.00;;;;5025689;28;20262;-63
2023/06/29 13:47:26;;;;;;;0.20;0.20;;;26.20;99.90;30.90;101351.00;;;;5018914;28;20206;-63
2023/06/29 13:50:10;;;;;;;0.10;0.10;;;26.50;99.90;30.20;101365.00;;;;5016052;28;20541;-63
2023/06/29 13:52:47;;;;;;;0.22;0.22;;;26.30;99.90;30.40;101361.00;;;;5016572;28;20207;-63
2023/06/29 13:55:18;;;;;;;0.10;0.10;;;26.20;99.90;30.40;101363.00;;;;5012745;28;20210;-63
2023/06/29 13:58:02;;;;;;;0.80;0.80;;;26.20;99.90;29.80;101345.00;;;;5020085;28;20175;-63
2023/06/29 14:00:52;;;;;;;1.10;1.10;;;26.00;99.90;29.50;101338.00;;;;5023333;28;20576;-63
2023/06/29 14:03:23;;;;;;;0.10;0.10;;;25.80;99.90;29.80;101328.00;;;;5018718;28;20278;-63
2023/06/29 14:05:56;;;;;;;1.83;1.73;;;25.90;99.90;30.40;101333.00;;;;5017746;28;20206;-63
2023/06/29 14:08:27;;;;;;;1.10;1.10;;;26.20;99.90;30.40;101342.00;;;;5017681;28;20183;-63
2023/06/29 14:10:56;;;;;;;0.10;0.10;;;26.40;99.90;30.60;101337.00;;;;5023193;28;20182;-63
2023/06/29 14:14:22;;;;;;;0.47;0.47;;;26.50;99.90;31.10;101334.00;;;;5020917;28;20691;-63
2023/06/29 14:17:26;;;;;;;0.45;0.45;;;26.80;99.90;31.10;101348.00;;;;5009437;28;20220;-63
2023/06/29 14:19:55;;;;;;;2.55;2.45;;;26.90;99.90;30.70;101361.00;;;;5022570;28;20213;-63
2023/06/29 14:22:59;;;;;;;2.00;1.65;;;26.70;99.90;30.40;101364.00;;;;5041450;28;20628;-63
2023/06/29 14:25:26;;;;;;;0.63;0.63;;;26.50;99.90;29.80;101342.00;;;;5022163;28;20710;-63
2023/06/29 14:27:55;;;;;;;1.05;1.05;;;26.10;99.90;30.00;101331.00;;;;5025601;28;20226;-63
2023/06/29 14:31:17;;;;;;;2.05;1.95;;;26.00;99.90;29.80;101325.00;;;;5024258;28;20184;-63
2023/06/29 14:34:20;;;;;;;0.63;0.63;;;26.00;99.90;29.50;101294.00;;;;5028011;28;20229;-63
2023/06/29 14:37:33;;;;;;;5.78;3.88;;;25.80;99.90;27.40;101241.00;;;;5024917;28;20519;-63
2023/06/29 14:40:16;;;;;;;2.95;1.35;;;25.20;99.90;27.70;101257.00;;;;5018690;28;20629;-63
2023/06/29 14:43:31;;;;;;;4.72;4.30;;;24.70;99.90;26.60;101233.00;;;;5029154;28;20277;-63
2023/06/29 14:46:02;;;;;;;0.77;0.77;;;24.10;99.90;26.20;101262.00;;;;5027982;28;20179;-63
2023/06/29 14:48:45;;;;;;;0.52;0.52;;;23.50;99.90;26.70;101259.00;;;;5012848;28;20184;-63
2023/06/29 14:51:13;;;;;;;1.77;1.65;;;23.50;99.90;25.80;101254.00;;;;5025501;28;20660;-63
2023/06/29 14:53:47;;;;;;;5.55;3.08;;;23.20;99.90;26.60;101255.00;;;;5011823;28;20195;-63
2023/06/29 14:57:10;;;;;;;0.10;0.10;;;23.20;99.90;27.20;101244.00;;;;5015322;28;20546;-63
2023/06/29 15:00:23;;;;;;;0.77;0.77;;;23.40;99.90;27.60;101243.00;;;;5021176;28;20278;-63
2023/06/29 15:03:38;;;;;;;0.10;0.10;;;23.90;99.90;28.10;101268.00;;;;5019615;28;20195;-63
2023/06/29 15:06:22;;;;;;;0.80;0.77;;;24.20;99.90;27.90;101269.00;;;;5037981;28;20596;-63
2023/06/29 15:09:26;;;;;;;1.45;0.80;;;24.40;99.90;28.00;101260.00;;;;5017289;28;20232;-63
2023/06/29 15:12:28;;;;;;;0.70;0.70;;;24.50;99.90;27.70;101267.00;;;;5023168;28;20203;-63
2023/06/29 15:15:50;;;;;;;0.47;0.45;;;24.40;99.90;27.90;101263.00;;;;5010528;28;20183;-63
2023/06/29 15:19:06;;;;;;;1.42;0.73;;;24.50;99.90;28.10;101278.00;;;;5019537;28;20191;-63
2023/06/29 15:22:37;;;;;;;1.25;1.25;;;24.40;99.90;28.20;101288.00;;;;5031835;28;20180;-63
2023/06/29 15:25:45;;;;;;;2.00;1.85;;;24.40;99.90;26.80;101269.00;;;;5014951;28;20262;-63
2023/06/29 15:29:09;;;;;;;7.05;2.72;;;24.00;99.90;26.80;101268.00;;;;5016039;28;20203;-63
2023/06/29 15:32:13;;;;;;;0.10;0.10;;;23.60;99.90;27.10;101271.00;;;;5024506;28;20570;-63
2023/06/29 15:34:39;;;;;;;0.20;0.20;;;23.60;99.90;27.10;101271.00;;;;5029741;28;20641;-63
2023/06/29 15:37:05;;;;;;;0.15;0.15;;;23.50;99.90;26.90;101273.00;;;;5032214;28;20233;-63
2023/06/29 15:39:48;;;;;;;0.65;0.65;;;23.40;99.90;25.90;101231.00;;;;5026753;28;20198;-63
2023/06/29 15:43:12;;;;;;;0.98;0.98;;;23.10;99.90;25.70;101261.00;;;;5030702;28;20187;-63
2023/06/29 15:46:19;;;;;;;0.52;0.52;;;22.90;99.90;25.90;101263.00;;;;5028579;28;20197;-63
2023/06/29 15:49:44;;;;;;;1.40;0.82;;;22.60;99.90;26.60;101266.00;;;;5017997;28;20229;-63
2023/06/29 15:53:17;;;;;;;0.30;0.30;;;22.80;99.90;26.10;101268.00;;;;5030786;28;20630;-63
2023/06/29 15:56:38;;;;;;;0.40;0.40;;;22.70;99.90;25.70;101262.00;;;;5013070;28;20198;-63
2023/06/29 15:59:45;;;;;;;0.32;0.32;;;22.60;99.90;25.50;101267.00;;;;5032050;28;20179;-63
2023/06/29 16:02:17;;;;;;;0.10;0.10;;;22.20;99.90;24.90;101256.00;;;;5030544;28;20202;-63
2023/06/29 16:04:45;;;;;;;0.47;0.47;;;21.90;99.90;25.40;101264.00;;;;5023312;28;20325;-63
2023/06/29 16:08:06;;;;;;;3.03;1.08;;;21.90;99.90;24.60;101260.00;;;;5021484;28;20180;-62
2023/06/29 16:11:24;;;;;;;1.15;0.70;;;21.90;99.90;24.10;101272.00;;;;5020516;28;20257;-62
2023/06/29 16:14:10;;;;;;;0.28;0.28;;;21.40;99.90;23.50;101271.00;;;;5033404;28;20640;-62
2023/06/29 16:17:23;;;;;;;0.20;0.20;;;20.90;99.90;23.30;101271.00;;;;5024885;28;20524;-62
2023/06/29 16:20:15;;;;;;;0.13;0.13;;;20.60;99.90;24.00;101284.00;;;;5028397;28;20194;-62
2023/06/29 16:23:43;;;;;;;1.65;0.85;;;20.80;99.90;22.80;101266.00;;;;5027911;28;20184;-62
2023/06/29 16:26:11;;;;;;;0.30;0.30;;;20.50;99.90;22.70;101259.00;;;;5027802;28;20185;-62
2023/06/29 16:28:37;;;;;;;0.25;0.25;;;20.10;99.90;22.90;101260.00;;;;5029043;28;20631;-62
2023/06/29 16:31:58;;;;;;;1.17;1.07;;;20.00;99.90;22.10;101244.00;;;;5028390;28;20192;-63
2023/06/29 16:35:09;;;;;;;0.20;0.20;;;19.80;99.90;22.90;101246.00;;;;5016433;28;20652;-62
2023/06/29 16:38:13;;;;;;;2.27;0.53;;;19.80;99.90;22.90;101249.00;;;;5018808;28;20524;-62
2023/06/29 16:40:41;;;;;;;0.67;0.67;;;19.90;99.90;22.40;101242.00;;;;5027591;28;20597;-62
2023/06/29 16:43:49;;;;;;;2.47;0.70;;;19.80;99.90;22.70;101261.00;;;;5018079;28;20189;-63
2023/06/29 16:46:17;;;;;;;0.40;0.40;;;19.70;99.90;22.60;101235.00;;;;5017777;28;20182;-62
2023/06/29 16:49:39;;;;;;;2.47;0.83;;;19.70;99.90;22.40;101267.00;;;;5021250;28;20197;-62
2023/06/29 16:52:56;;;;;;;0.40;0.40;;;19.60;99.90;22.00;101266.00;;;;4991365;28;20220;-62
2023/06/29 16:55:59;;;;;;;0.40;0.40;;;19.50;99.90;22.60;101276.00;;;;5018376;28;20271;-62
2023/06/29 16:58:26;;;;;;;0.20;0.20;;;19.40;99.90;22.50;101278.00;;;;5022772;28;20188;-62
2023/06/29 17:00:54;;;;;;;0.30;0.30;;;19.40;99.90;22.50;101269.00;;;;5025821;28;20552;-62
2023/06/29 17:03:22;;;;;;;0.20;0.20;;;19.40;99.90;22.80;101268.00;;;;5023732;28;20208;-62
2023/06/29 17:05:50;;;;;;;0.63;0.63;;;19.50;99.90;23.00;101279.00;;;;5017619;28;20195;-62
2023/06/29 17:08:23;;;;;;;0.50;0.50;;;19.60;99.90;22.00;101255.00;;;;5026873;28;20284;-62
2023/06/29 17:10:52;;;;;;;0.40;0.40;;;19.30;99.90;21.80;101269.00;;;;5023737;28;20188;-62
2023/06/29 17:13:59;;;;;;;0.40;0.40;;;19.20;99.90;22.00;101271.00;;;;5017614;28;20534;-62
2023/06/29 17:16:45;;;;;;;0.63;0.63;;;19.20;99.90;21.70;101243.00;;;;5023142;28;20761;-62
2023/06/29 17:19:48;;;;;;;1.33;1.07;;;19.10;99.90;21.50;101273.00;;;;5018638;28;20184;-62
2023/06/29 17:22:17;;;;;;;0.40;0.40;;;18.90;99.90;21.90;101277.00;;;;5028344;28;20187;-62
2023/06/29 17:24:43;;;;;;;0.30;0.30;;;19.00;99.90;21.90;101275.00;;;;5028393;28;20191;-62
2023/06/29 17:27:09;;;;;;;3.93;1.53;;;18.90;99.90;21.90;101287.00;;;;5026124;28;20188;-62
2023/06/29 17:29:52;;;;;;;0.13;0.13;;;19.00;99.90;22.30;101292.00;;;;5022427;28;20242;-62
2023/06/29 17:32:27;;;;;;;0.20;0.20;;;19.10;99.90;21.70;101296.00;;;;5015958;28;20209;-62
2023/06/29 17:35:44;;;;;;;0.20;0.20;;;19.10;99.90;22.00;101287.00;;;;5013992;28;20191;-62
2023/06/29 17:38:47;;;;;;;0.47;0.47;;;19.00;99.90;21.60;101291.00;;;;5028220;28;20183;-62
2023/06/29 17:41:22;;;;;;;0.73;0.47;;;18.90;99.90;21.20;101281.00;;;;5020351;28;20195;-62
2023/06/29 17:44:39;;;;;;;0.27;0.23;;;18.70;99.90;20.10;101261.00;;;;5026239;28;20187;-62
2023/06/29 17:47:53;;;;;;;0.20;0.20;;;18.40;99.90;20.70;101264.00;;;;5020019;28;20193;-62
2023/06/29 17:51:00;;;;;;;0.50;0.50;;;18.40;99.90;20.60;101236.00;;;;5021172;28;20616;-62
2023/06/29 17:53:47;;;;;;;0.23;0.23;;;18.20;99.90;20.70;101270.00;;;;5124336;27;20225;-62
2023/06/29 17:57:08;;;;;;;0.20;0.20;;;18.00;99.90;20.60;101260.00;;;;5006516;28;20205;-62
2023/06/29 17:59:41;;;;;;;3.00;0.47;;;18.00;99.90;21.30;101280.00;;;;5018345;28;20201;-62
2023/06/29 18:02:33;;;;;;;0.20;0.20;;;18.20;99.90;21.40;101295.00;;;;5028784;28;20191;-62
2023/06/29 18:05:19;;;;;;;0.20;0.20;;;18.20;99.90;21.20;101287.00;;;;5016075;28;20605;-62
2023/06/29 18:08:02;;;;;;;0.30;0.30;;;18.20;99.90;22.00;101303.00;;;;5020590;28;20195;-62
2023/06/29 18:11:16;;;;;;;0.20;0.20;;;18.40;99.90;21.80;101295.00;;;;5026397;28;20194;-62
2023/06/29 18:13:53;;;;;;;0.30;0.30;;;18.60;99.90;21.40;101308.00;;;;5026454;28;20200;-62
2023/06/29 18:16:22;;;;;;;0.20;0.20;;;18.50;99.90;21.60;101280.00;;;;5010600;28;20602;-62
2023/06/29 18:18:47;;;;;;;0.30;0.30;;;18.40;99.90;21.60;101310.00;;;;5023731;28;20186;-62
2023/06/29 18:21:16;;;;;;;0.30;0.30;;;18.40;99.90;21.60;101285.00;;;;5019796;28;20177;-62
2023/06/29 18:23:46;;;;;;;0.40;0.40;;;18.40;99.90;20.70;101287.00;;;;5030367;28;20218;-62
2023/06/29 18:26:16;;;;;;;0.20;0.20;;;18.10;99.90;20.80;101294.00;;;;5020143;28;20193;-62
2023/06/29 18:28:42;;;;;;;0.50;0.50;;;18.10;99.90;20.60;101296.00;;;;5027896;28;20190;-62
2023/06/29 18:31:14;;;;;;;0.40;0.40;;;17.90;99.90;20.80;101295.00;;;;5023673;28;20191;-62
2023/06/29 18:33:40;;;;;;;0.20;0.20;;;17.90;99.90;21.00;101293.00;;;;5025914;28;20190;-62
2023/06/29 18:36:17;;;;;;;0.20;0.20;;;18.00;99.90;20.30;101290.00;;;;5024135;28;20189;-62
2023/06/29 18:38:43;;;;;;;0.30;0.30;;;17.90;99.90;20.70;101302.00;;;;5025810;28;20541;-62
2023/06/29 18:41:37;;;;;;;0.20;0.20;;;18.00;99.90;21.80;101307.00;;;;5027546;28;20528;-62
2023/06/29 18:44:04;;;;;;;0.20;0.20;;;18.30;99.90;21.70;101309.00;;;;5026973;28;20194;-62
2023/06/29 18:46:37;;;;;;;0.20;0.20;;;18.40;99.90;21.70;101312.00;;;;5028371;28;20194;-62
2023/06/29 18:49:04;;;;;;;0.30;0.30;;;18.40;99.90;20.60;101301.00;;;;5017352;28;20190;-62
2023/06/29 18:51:37;;;;;;;0.27;0.27;;;18.20;99.90;20.30;101295.00;;;;5027831;28;20191;-62